createdAt,value
2023-04-06T00:00:50.888Z,867.40
2023-04-06T00:01:50.916Z,866.99
2023-04-06T00:02:50.931Z,869.92
2023-04-06T00:03:50.896Z,884.99
2023-04-06T00:04:50.849Z,874.85
2023-04-06T00:05:50.836Z,884.04
2023-04-06T00:06:50.813Z,861.80
2023-04-06T00:07:50.798Z,882.17
2023-04-06T00:08:50.791Z,883.79
2023-04-06T00:09:50.794Z,871.06
2023-04-06T00:10:50.778Z,869.27
2023-04-06T00:11:50.763Z,873.47
2023-04-06T00:12:50.777Z,872.04
2023-04-06T00:13:50.738Z,889.18
2023-04-06T00:14:50.722Z,878.53
2023-04-06T00:15:50.720Z,874.39
2023-04-06T00:16:50.810Z,859.51
2023-04-06T00:17:50.700Z,869.96
2023-04-06T00:18:50.712Z,869.80
2023-04-06T00:19:50.665Z,874.28
2023-04-06T00:20:50.656Z,879.65
2023-04-06T00:21:50.692Z,884.39
2023-04-06T00:22:50.652Z,876.52
2023-04-06T00:23:50.624Z,869.41
2023-04-06T00:24:50.614Z,868.67
2023-04-06T00:25:50.615Z,864.25
2023-04-06T00:26:50.612Z,868.98
2023-04-06T00:27:50.604Z,874.70
2023-04-06T00:28:50.588Z,861.42
2023-04-06T00:29:50.573Z,844.63
2023-04-06T00:30:50.568Z,858.77
2023-04-06T00:31:50.597Z,883.31
2023-04-06T00:32:50.662Z,883.63
2023-04-06T00:33:50.531Z,894.01
2023-04-06T00:34:50.544Z,875.25
2023-04-06T00:35:50.551Z,871.90
2023-04-06T00:36:50.506Z,873.73
2023-04-06T00:37:50.501Z,886.78
2023-04-06T00:38:50.495Z,899.14
2023-04-06T00:39:50.469Z,887.71
2023-04-06T00:40:50.451Z,871.08
2023-04-06T00:41:50.431Z,868.15
2023-04-06T00:42:58.234Z,852.67
2023-04-06T00:43:50.410Z,857.42
2023-04-06T00:44:50.416Z,876.94
2023-04-06T00:45:50.424Z,894.77
2023-04-06T00:46:50.377Z,910.44
2023-04-06T00:47:50.435Z,894.58
2023-04-06T00:48:50.360Z,898.70
2023-04-06T00:49:50.368Z,879.58
2023-04-06T00:50:50.367Z,866.67
2023-04-06T00:51:50.349Z,881.25
2023-04-06T00:52:50.314Z,892.83
2023-04-06T00:53:50.319Z,892.10
2023-04-06T00:54:50.318Z,899.69
2023-04-06T00:55:50.310Z,898.39
2023-04-06T00:56:50.270Z,894.11
2023-04-06T00:57:50.272Z,889.43
2023-04-06T00:58:50.250Z,888.28
2023-04-06T00:59:50.239Z,886.43
2023-04-06T01:00:50.238Z,891.32
2023-04-06T01:01:50.315Z,895.76
2023-04-06T01:02:50.219Z,901.71
2023-04-06T01:03:50.196Z,904.01
2023-04-06T01:04:50.203Z,904.34
2023-04-06T01:05:50.254Z,905.72
2023-04-06T01:06:50.193Z,898.44
2023-04-06T01:07:50.165Z,890.57
2023-04-06T01:08:50.162Z,891.91
2023-04-06T01:09:50.155Z,888.01
2023-04-06T01:10:50.120Z,894.77
2023-04-06T01:11:50.130Z,901.04
2023-04-06T01:12:50.096Z,898.44
2023-04-06T01:13:50.112Z,906.89
2023-04-06T01:14:50.083Z,913.25
2023-04-06T01:15:50.133Z,908.86
2023-04-06T01:16:50.077Z,916.75
2023-04-06T01:17:50.097Z,908.77
2023-04-06T01:18:50.035Z,908.93
2023-04-06T01:19:50.038Z,909.26
2023-04-06T01:20:50.018Z,910.07
2023-04-06T01:21:50.020Z,902.05
2023-04-06T01:22:50.032Z,917.43
2023-04-06T01:23:49.989Z,912.83
2023-04-06T01:24:50.722Z,908.15
2023-04-06T01:25:49.960Z,912.99
2023-04-06T01:26:49.945Z,905.98
2023-04-06T01:27:49.941Z,905.09
2023-04-06T01:28:49.936Z,913.87
2023-04-06T01:29:49.918Z,920.27
2023-04-06T01:30:49.932Z,916.39
2023-04-06T01:31:49.965Z,910.60
2023-04-06T01:32:49.943Z,910.16
2023-04-06T01:33:49.875Z,917.64
2023-04-06T01:34:49.882Z,917.81
2023-04-06T01:35:49.897Z,905.66
2023-04-06T01:36:49.845Z,916.53
2023-04-06T01:37:49.850Z,918.53
2023-04-06T01:38:49.862Z,916.05
2023-04-06T01:39:49.849Z,906.96
2023-04-06T01:40:49.820Z,917.90
2023-04-06T01:41:49.789Z,902.05
2023-04-06T01:42:49.797Z,913.61
2023-04-06T01:43:49.788Z,911.37
2023-04-06T01:44:49.763Z,913.86
2023-04-06T01:45:49.757Z,911.21
2023-04-06T01:46:49.764Z,912.65
2023-04-06T01:47:49.866Z,918.01
2023-04-06T01:48:49.729Z,906.50
2023-04-06T01:49:49.719Z,909.55
2023-04-06T01:50:49.733Z,915.01
2023-04-06T01:51:49.681Z,908.88
2023-04-06T01:52:49.677Z,917.82
2023-04-06T01:53:49.684Z,916.37
2023-04-06T01:54:49.677Z,918.15
2023-04-06T01:55:49.637Z,912.69
2023-04-06T01:56:49.651Z,908.11
2023-04-06T01:57:49.641Z,921.82
2023-04-06T01:58:49.652Z,917.80
2023-04-06T01:59:49.599Z,918.38
2023-04-06T02:00:49.644Z,927.83
2023-04-06T02:01:49.609Z,932.90
2023-04-06T02:02:49.599Z,918.68
2023-04-06T02:03:49.561Z,921.23
2023-04-06T02:04:49.536Z,910.78
2023-04-06T02:05:49.535Z,920.87
2023-04-06T02:06:49.525Z,910.53
2023-04-06T02:07:49.518Z,920.83
2023-04-06T02:08:49.494Z,921.91
2023-04-06T02:09:49.492Z,921.75
2023-04-06T02:10:49.509Z,918.89
2023-04-06T02:11:49.477Z,919.04
2023-04-06T02:12:49.454Z,911.98
2023-04-06T02:13:49.445Z,909.54
2023-04-06T02:14:49.429Z,915.00
2023-04-06T02:15:49.447Z,925.62
2023-04-06T02:16:49.493Z,927.17
2023-04-06T02:17:49.428Z,912.12
2023-04-06T02:18:49.414Z,911.46
2023-04-06T02:19:49.377Z,917.38
2023-04-06T02:20:49.374Z,909.60
2023-04-06T02:21:49.389Z,914.37
2023-04-06T02:22:49.365Z,923.17
2023-04-06T02:23:49.334Z,917.17
2023-04-06T02:24:49.345Z,911.04
2023-04-06T02:25:49.318Z,922.62
2023-04-06T02:26:49.340Z,920.56
2023-04-06T02:27:49.308Z,919.22
2023-04-06T02:28:49.281Z,905.51
2023-04-06T02:29:49.288Z,918.28
2023-04-06T02:30:49.255Z,922.61
2023-04-06T02:31:49.278Z,917.48
2023-04-06T02:32:49.263Z,923.25
2023-04-06T02:33:49.239Z,929.47
2023-04-06T02:34:49.220Z,915.14
2023-04-06T02:35:49.272Z,916.79
2023-04-06T02:36:49.203Z,916.18
2023-04-06T02:37:49.180Z,921.18
2023-04-06T02:38:49.217Z,904.05
2023-04-06T02:39:49.163Z,920.23
2023-04-06T02:40:49.150Z,911.37
2023-04-06T02:41:49.150Z,920.62
2023-04-06T02:42:49.155Z,916.47
2023-04-06T02:43:56.157Z,871.44
2023-04-06T02:44:49.101Z,887.36
2023-04-06T02:45:49.136Z,896.27
2023-04-06T02:46:49.083Z,915.52
2023-04-06T02:47:49.127Z,913.62
2023-04-06T02:48:49.070Z,920.30
2023-04-06T02:49:49.050Z,928.59
2023-04-06T02:50:49.035Z,928.98
2023-04-06T02:51:49.044Z,923.75
2023-04-06T02:52:49.018Z,924.44
2023-04-06T02:53:49.728Z,917.06
2023-04-06T02:54:49.001Z,918.17
2023-04-06T02:55:48.988Z,926.09
2023-04-06T02:56:49.015Z,921.15
2023-04-06T02:57:48.964Z,923.49
2023-04-06T02:58:49.046Z,926.98
2023-04-06T02:59:48.949Z,924.81
2023-04-06T03:00:48.941Z,937.68
2023-04-06T03:01:49.017Z,927.32
2023-04-06T03:02:49.001Z,925.92
2023-04-06T03:03:49.002Z,919.53
2023-04-06T03:04:48.903Z,918.05
2023-04-06T03:05:48.891Z,904.33
2023-04-06T03:06:48.868Z,897.66
2023-04-06T03:07:48.857Z,905.25
2023-04-06T03:08:48.857Z,894.77
2023-04-06T03:09:48.855Z,907.55
2023-04-06T03:10:48.819Z,914.89
2023-04-06T03:11:48.847Z,920.26
2023-04-06T03:12:48.817Z,911.96
2023-04-06T03:13:48.788Z,894.54
2023-04-06T03:14:48.821Z,896.75
2023-04-06T03:15:48.817Z,917.13
2023-04-06T03:16:48.771Z,910.54
2023-04-06T03:17:48.828Z,895.48
2023-04-06T03:18:48.741Z,889.56
2023-04-06T03:19:48.739Z,892.53
2023-04-06T03:20:48.714Z,884.53
2023-04-06T03:21:48.732Z,890.78
2023-04-06T03:22:48.728Z,895.82
2023-04-06T03:23:48.676Z,898.03
2023-04-06T03:24:48.662Z,899.97
2023-04-06T03:25:48.650Z,906.31
2023-04-06T03:26:48.667Z,902.94
2023-04-06T03:27:48.681Z,897.53
2023-04-06T03:28:48.643Z,913.42
2023-04-06T03:29:48.646Z,921.36
2023-04-06T03:30:48.617Z,910.76
2023-04-06T03:31:48.626Z,929.07
2023-04-06T03:32:48.596Z,937.66
2023-04-06T03:33:48.563Z,931.84
2023-04-06T03:34:48.566Z,928.65
2023-04-06T03:35:48.560Z,930.28
2023-04-06T03:36:53.986Z,939.25
2023-04-06T03:37:48.528Z,933.80
2023-04-06T03:38:48.534Z,922.12
2023-04-06T03:39:48.491Z,919.41
2023-04-06T03:40:48.502Z,902.65
2023-04-06T03:41:48.505Z,901.17
2023-04-06T03:42:48.458Z,916.68
2023-04-06T03:43:48.452Z,902.16
2023-04-06T03:44:48.435Z,898.27
2023-04-06T03:45:48.437Z,891.74
2023-04-06T03:46:48.515Z,899.45
2023-04-06T03:47:48.439Z,907.87
2023-04-06T03:48:48.388Z,900.32
2023-04-06T03:49:48.475Z,907.10
2023-04-06T03:50:48.390Z,896.52
2023-04-06T03:51:48.377Z,907.59
2023-04-06T03:52:48.357Z,894.04
2023-04-06T03:53:48.351Z,906.79
2023-04-06T03:54:48.358Z,904.13
2023-04-06T03:55:48.315Z,899.05
2023-04-06T03:56:48.308Z,901.76
2023-04-06T03:57:48.301Z,901.58
2023-04-06T03:58:48.364Z,901.22
2023-04-06T03:59:48.292Z,907.64
2023-04-06T04:00:48.262Z,897.73
2023-04-06T04:01:48.297Z,905.37
2023-04-06T04:02:48.371Z,905.43
2023-04-06T04:03:50.253Z,921.58
2023-04-06T04:04:48.275Z,925.24
2023-04-06T04:05:48.213Z,940.99
2023-04-06T04:06:48.188Z,944.41
2023-04-06T04:07:48.176Z,945.05
2023-04-06T04:08:48.175Z,947.88
2023-04-06T04:09:48.171Z,933.76
2023-04-06T04:10:48.246Z,944.27
2023-04-06T04:11:48.166Z,939.06
2023-04-06T04:12:48.157Z,934.98
2023-04-06T04:13:48.112Z,945.38
2023-04-06T04:14:48.108Z,931.16
2023-04-06T04:15:48.098Z,937.34
2023-04-06T04:16:48.141Z,947.54
2023-04-06T04:17:48.091Z,945.83
2023-04-06T04:18:48.068Z,948.72
2023-04-06T04:19:48.056Z,936.22
2023-04-06T04:20:48.025Z,947.53
2023-04-06T04:21:48.042Z,942.12
2023-04-06T04:22:48.026Z,947.21
2023-04-06T04:23:48.019Z,946.96
2023-04-06T04:24:47.983Z,936.79
2023-04-06T04:25:47.975Z,946.95
2023-04-06T04:26:47.977Z,944.97
2023-04-06T04:27:47.955Z,943.39
2023-04-06T04:28:47.947Z,929.05
2023-04-06T04:29:47.939Z,941.31
2023-04-06T04:30:47.945Z,943.06
2023-04-06T04:31:47.949Z,930.91
2023-04-06T04:32:47.992Z,929.46
2023-04-06T04:33:47.918Z,927.63
2023-04-06T04:34:47.898Z,916.96
2023-04-06T04:35:47.936Z,929.38
2023-04-06T04:36:47.868Z,937.08
2023-04-06T04:37:47.845Z,925.78
2023-04-06T04:38:47.844Z,917.01
2023-04-06T04:39:47.825Z,932.03
2023-04-06T04:40:47.840Z,918.13
2023-04-06T04:41:47.801Z,921.44
2023-04-06T04:42:47.790Z,907.57
2023-04-06T04:43:47.774Z,917.70
2023-04-06T04:44:55.271Z,869.80
2023-04-06T04:45:47.837Z,888.61
2023-04-06T04:46:47.746Z,894.90
2023-04-06T04:47:47.754Z,912.11
2023-04-06T04:48:47.726Z,917.81
2023-04-06T04:49:47.717Z,915.26
2023-04-06T04:50:47.741Z,926.35
2023-04-06T04:51:47.694Z,934.99
2023-04-06T04:52:47.684Z,918.64
2023-04-06T04:53:47.751Z,932.82
2023-04-06T04:54:47.676Z,944.18
2023-04-06T04:55:47.648Z,935.58
2023-04-06T04:56:47.654Z,944.29
2023-04-06T04:57:47.649Z,934.83
2023-04-06T04:58:47.633Z,944.44
2023-04-06T04:59:47.610Z,943.10
2023-04-06T05:00:47.623Z,942.75
2023-04-06T05:01:54.957Z,954.94
2023-04-06T05:02:47.719Z,953.92
2023-04-06T05:03:47.637Z,944.48
2023-04-06T05:04:47.567Z,928.64
2023-04-06T05:05:47.538Z,930.45
2023-04-06T05:06:47.568Z,926.37
2023-04-06T05:07:47.515Z,934.26
2023-04-06T05:08:47.545Z,953.38
2023-04-06T05:09:47.504Z,938.88
2023-04-06T05:10:47.505Z,935.52
2023-04-06T05:11:47.479Z,932.11
2023-04-06T05:12:47.461Z,936.80
2023-04-06T05:13:47.461Z,946.94
2023-04-06T05:14:47.442Z,940.55
2023-04-06T05:15:47.497Z,938.34
2023-04-06T05:16:47.418Z,941.66
2023-04-06T05:17:47.433Z,941.41
2023-04-06T05:18:47.400Z,949.85
2023-04-06T05:19:47.395Z,953.17
2023-04-06T05:20:47.387Z,948.48
2023-04-06T05:21:47.370Z,954.71
2023-04-06T05:22:47.373Z,931.88
2023-04-06T05:23:47.346Z,933.38
2023-04-06T05:24:47.338Z,926.02
2023-04-06T05:25:47.339Z,918.38
2023-04-06T05:26:47.314Z,907.51
2023-04-06T05:27:47.329Z,915.83
2023-04-06T05:28:47.294Z,920.01
2023-04-06T05:29:47.289Z,920.71
2023-04-06T05:30:47.277Z,911.82
2023-04-06T05:31:47.288Z,923.88
2023-04-06T05:32:47.342Z,923.54
2023-04-06T05:33:47.241Z,922.63
2023-04-06T05:34:47.249Z,914.10
2023-04-06T05:35:47.265Z,919.56
2023-04-06T05:36:47.226Z,920.40
2023-04-06T05:37:47.211Z,930.06
2023-04-06T05:38:47.194Z,923.91
2023-04-06T05:39:47.166Z,923.64
2023-04-06T05:40:47.161Z,926.78
2023-04-06T05:41:47.130Z,912.74
2023-04-06T05:42:47.134Z,921.61
2023-04-06T05:43:47.131Z,919.94
2023-04-06T05:44:47.099Z,905.16
2023-04-06T05:45:47.089Z,899.38
2023-04-06T05:46:47.167Z,911.23
2023-04-06T05:47:47.101Z,908.64
2023-04-06T05:48:47.057Z,903.83
2023-04-06T05:49:47.068Z,900.34
2023-04-06T05:50:47.047Z,906.17
2023-04-06T05:51:47.042Z,926.40
2023-04-06T05:52:47.016Z,920.53
2023-04-06T05:53:47.009Z,918.67
2023-04-06T05:54:47.013Z,916.88
2023-04-06T05:55:46.979Z,908.03
2023-04-06T05:56:46.978Z,914.59
2023-04-06T05:57:46.959Z,917.66
2023-04-06T05:58:46.957Z,904.29
2023-04-06T05:59:46.943Z,901.97
2023-04-06T06:00:47.038Z,888.23
2023-04-06T06:01:46.950Z,888.23
2023-04-06T06:02:46.965Z,893.09
2023-04-06T06:03:46.894Z,904.54
2023-04-06T06:04:46.916Z,907.10
2023-04-06T06:05:46.886Z,910.32
2023-04-06T06:06:46.868Z,911.53
2023-04-06T06:07:46.849Z,907.51
2023-04-06T06:08:46.842Z,910.06
2023-04-06T06:09:46.821Z,906.64
2023-04-06T06:10:46.835Z,904.70
2023-04-06T06:11:46.825Z,902.28
2023-04-06T06:12:46.796Z,891.51
2023-04-06T06:13:46.776Z,907.05
2023-04-06T06:14:46.777Z,889.69
2023-04-06T06:15:46.768Z,892.61
2023-04-06T06:16:46.794Z,895.97
2023-04-06T06:17:46.759Z,908.78
2023-04-06T06:18:46.729Z,895.63
2023-04-06T06:19:46.760Z,895.39
2023-04-06T06:20:46.726Z,896.76
2023-04-06T06:21:46.696Z,892.03
2023-04-06T06:22:46.684Z,901.41
2023-04-06T06:23:46.686Z,900.45
2023-04-06T06:24:46.667Z,894.31
2023-04-06T06:25:46.661Z,891.82
2023-04-06T06:26:46.660Z,895.41
2023-04-06T06:27:46.655Z,892.81
2023-04-06T06:28:46.632Z,893.22
2023-04-06T06:29:46.612Z,874.48
2023-04-06T06:30:46.612Z,873.07
2023-04-06T06:31:46.625Z,874.47
2023-04-06T06:32:46.624Z,879.23
2023-04-06T06:33:46.578Z,864.12
2023-04-06T06:34:46.569Z,852.79
2023-04-06T06:35:46.649Z,834.51
2023-04-06T06:36:48.425Z,834.54
2023-04-06T06:37:46.537Z,861.20
2023-04-06T06:38:46.531Z,860.59
2023-04-06T06:39:46.501Z,877.66
2023-04-06T06:40:46.514Z,868.63
2023-04-06T06:41:46.496Z,859.51
2023-04-06T06:42:46.493Z,854.97
2023-04-06T06:43:46.498Z,862.86
2023-04-06T06:44:46.490Z,864.02
2023-04-06T06:45:54.149Z,822.23
2023-04-06T06:46:46.439Z,821.91
2023-04-06T06:47:46.503Z,828.70
2023-04-06T06:48:46.427Z,839.91
2023-04-06T06:49:46.405Z,847.25
2023-04-06T06:50:46.399Z,854.07
2023-04-06T06:51:46.432Z,854.74
2023-04-06T06:52:46.380Z,848.15
2023-04-06T06:53:46.533Z,855.13
2023-04-06T06:54:46.377Z,846.34
2023-04-06T06:55:46.337Z,838.89
2023-04-06T06:56:46.321Z,827.60
2023-04-06T06:57:46.320Z,823.24
2023-04-06T06:58:46.335Z,823.88
2023-04-06T06:59:46.306Z,839.43
2023-04-06T07:00:46.355Z,844.71
2023-04-06T07:01:46.266Z,845.72
2023-04-06T07:02:46.319Z,847.28
2023-04-06T07:03:46.351Z,849.32
2023-04-06T07:04:46.353Z,854.04
2023-04-06T07:05:46.234Z,846.09
2023-04-06T07:06:46.236Z,836.42
2023-04-06T07:07:46.228Z,823.09
2023-04-06T07:08:46.227Z,823.23
2023-04-06T07:09:46.180Z,824.81
2023-04-06T07:10:46.168Z,811.50
2023-04-06T07:11:46.171Z,835.91
2023-04-06T07:12:46.155Z,827.58
2023-04-06T07:13:46.172Z,820.06
2023-04-06T07:14:46.162Z,803.07
2023-04-06T07:15:46.150Z,815.55
2023-04-06T07:16:46.245Z,833.49
2023-04-06T07:17:46.230Z,827.96
2023-04-06T07:18:46.108Z,845.72
2023-04-06T07:19:46.124Z,861.95
2023-04-06T07:20:46.057Z,861.03
2023-04-06T07:21:46.051Z,865.21
2023-04-06T07:22:46.043Z,857.52
2023-04-06T07:23:46.070Z,851.58
2023-04-06T07:24:46.044Z,827.88
2023-04-06T07:25:46.015Z,819.39
2023-04-06T07:26:46.007Z,820.91
2023-04-06T07:27:45.999Z,814.54
2023-04-06T07:28:46.024Z,824.36
2023-04-06T07:29:45.994Z,810.11
2023-04-06T07:30:45.977Z,808.70
2023-04-06T07:31:45.996Z,800.95
2023-04-06T07:32:45.975Z,804.48
2023-04-06T07:33:45.931Z,802.25
2023-04-06T07:34:45.914Z,789.01
2023-04-06T07:35:45.906Z,794.28
2023-04-06T07:36:46.124Z,805.97
2023-04-06T07:37:45.871Z,812.79
2023-04-06T07:38:45.875Z,813.69
2023-04-06T07:39:45.867Z,801.76
2023-04-06T07:40:45.859Z,826.26
2023-04-06T07:41:45.828Z,811.21
2023-04-06T07:42:45.839Z,823.16
2023-04-06T07:43:46.367Z,821.32
2023-04-06T07:44:45.836Z,822.02
2023-04-06T07:45:45.823Z,812.47
2023-04-06T07:46:45.800Z,804.25
2023-04-06T07:47:45.803Z,803.91
2023-04-06T07:48:45.780Z,796.10
2023-04-06T07:49:45.742Z,784.07
2023-04-06T07:50:45.736Z,784.78
2023-04-06T07:51:45.738Z,786.45
2023-04-06T07:52:45.709Z,780.33
2023-04-06T07:53:45.704Z,780.61
2023-04-06T07:54:45.695Z,774.91
2023-04-06T07:55:45.676Z,775.26
2023-04-06T07:56:45.684Z,767.56
2023-04-06T07:57:45.654Z,773.57
2023-04-06T07:58:45.655Z,774.72
2023-04-06T07:59:45.710Z,776.53
2023-04-06T08:00:45.628Z,774.98
2023-04-06T08:01:45.609Z,770.75
2023-04-06T08:02:45.699Z,764.37
2023-04-06T08:03:45.705Z,764.22
2023-04-06T08:04:45.933Z,775.08
2023-04-06T08:05:45.568Z,769.01
2023-04-06T08:06:45.568Z,774.43
2023-04-06T08:07:45.547Z,779.58
2023-04-06T08:08:45.543Z,771.93
2023-04-06T08:09:45.565Z,772.42
2023-04-06T08:10:45.513Z,786.00
2023-04-06T08:11:45.517Z,783.75
2023-04-06T08:12:45.497Z,781.08
2023-04-06T08:13:45.509Z,779.82
2023-04-06T08:14:45.472Z,776.29
2023-04-06T08:15:45.517Z,775.88
2023-04-06T08:16:45.476Z,768.66
2023-04-06T08:17:45.480Z,765.60
2023-04-06T08:18:45.447Z,774.38
2023-04-06T08:19:45.434Z,775.17
2023-04-06T08:20:45.420Z,770.17
2023-04-06T08:21:45.392Z,768.70
2023-04-06T08:22:45.394Z,764.31
2023-04-06T08:23:45.368Z,751.39
2023-04-06T08:24:45.379Z,741.17
2023-04-06T08:25:45.404Z,765.52
2023-04-06T08:26:45.347Z,781.33
2023-04-06T08:27:45.326Z,768.76
2023-04-06T08:28:47.022Z,756.22
2023-04-06T08:29:45.315Z,755.29
2023-04-06T08:30:45.308Z,753.71
2023-04-06T08:31:45.319Z,748.59
2023-04-06T08:32:45.298Z,750.76
2023-04-06T08:33:45.267Z,749.81
2023-04-06T08:34:45.270Z,748.77
2023-04-06T08:35:45.312Z,749.00
2023-04-06T08:36:45.226Z,753.11
2023-04-06T08:37:45.218Z,766.96
2023-04-06T08:38:45.248Z,766.77
2023-04-06T08:39:45.203Z,771.43
2023-04-06T08:40:45.184Z,781.17
2023-04-06T08:41:45.176Z,768.88
2023-04-06T08:42:45.172Z,765.38
2023-04-06T08:43:45.174Z,764.57
2023-04-06T08:44:45.141Z,752.72
2023-04-06T08:45:45.155Z,744.67
2023-04-06T08:46:52.706Z,714.20
2023-04-06T08:47:45.142Z,721.49
2023-04-06T08:48:45.107Z,738.10
2023-04-06T08:49:45.093Z,749.89
